createdAt,value
2022-10-08T00:00:00.003Z,97276.00
2022-10-08T00:02:29.790Z,97272.66
2022-10-08T00:04:58.125Z,97281.38
2022-10-08T00:07:26.770Z,97273.78
2022-10-08T00:09:55.380Z,97268.69
2022-10-08T00:12:23.990Z,97271.59
2022-10-08T00:14:52.809Z,97265.97
2022-10-08T00:17:22.431Z,97262.06
2022-10-08T00:19:51.077Z,97261.28
2022-10-08T00:22:19.683Z,97262.56
2022-10-08T00:24:49.907Z,97260.81
2022-10-08T00:27:18.293Z,97259.72
2022-10-08T00:29:46.999Z,97248.16
2022-10-08T00:32:15.271Z,97254.59
2022-10-08T00:34:45.265Z,97250.75
2022-10-08T00:37:14.132Z,97244.75
2022-10-08T00:39:43.216Z,97247.50
2022-10-08T00:42:13.665Z,97243.19
2022-10-08T00:45:01.049Z,97242.69
2022-10-08T00:47:45.438Z,97242.81
2022-10-08T00:50:21.114Z,97227.88
2022-10-08T00:52:53.472Z,97231.72
2022-10-08T00:55:27.161Z,97228.66
2022-10-08T00:58:02.218Z,97230.72
2022-10-08T01:00:33.281Z,97233.13
2022-10-08T01:03:03.761Z,97222.72
2022-10-08T01:05:50.502Z,97223.19
2022-10-08T01:08:34.670Z,97216.72
2022-10-08T01:11:21.284Z,97218.75
2022-10-08T01:14:00.982Z,97219.66
2022-10-08T01:16:41.333Z,97218.59
2022-10-08T01:19:38.345Z,97222.88
2022-10-08T01:22:24.084Z,97219.34
2022-10-08T01:25:15.723Z,97221.25
2022-10-08T01:27:50.591Z,97211.47
2022-10-08T01:30:20.900Z,97214.69
2022-10-08T01:32:56.294Z,97207.91
2022-10-08T01:35:31.262Z,97217.59
2022-10-08T01:38:07.072Z,97213.13
2022-10-08T01:40:38.803Z,97211.06
2022-10-08T01:43:13.706Z,97212.84
2022-10-08T01:45:49.450Z,97219.16
2022-10-08T01:48:27.210Z,97208.41
2022-10-08T01:51:01.288Z,97208.59
2022-10-08T01:53:34.725Z,97208.59
2022-10-08T01:56:07.097Z,97206.06
2022-10-08T01:58:44.221Z,97205.94
2022-10-08T02:01:23.580Z,97202.38
2022-10-08T02:04:10.741Z,97200.63
2022-10-08T02:06:48.868Z,97208.03
2022-10-08T02:09:17.835Z,97203.38
2022-10-08T02:11:46.380Z,97207.59
2022-10-08T02:14:16.387Z,97208.38
2022-10-08T02:16:52.126Z,97200.50
2022-10-08T02:19:36.816Z,97199.06
2022-10-08T02:22:08.006Z,97197.59
2022-10-08T02:24:44.714Z,97193.91
2022-10-08T02:27:15.729Z,97195.53
2022-10-08T02:29:58.080Z,97187.50
2022-10-08T02:32:36.025Z,97189.91
2022-10-08T02:35:13.145Z,97199.75
2022-10-08T02:37:48.915Z,97199.06
2022-10-08T02:40:19.678Z,97191.06
2022-10-08T02:42:54.325Z,97188.97
2022-10-08T02:45:29.135Z,97192.19
2022-10-08T02:48:06.755Z,97196.53
2022-10-08T02:50:40.866Z,97188.34
2022-10-08T02:53:09.789Z,97189.78
2022-10-08T02:55:50.262Z,97194.28
2022-10-08T02:58:19.437Z,97197.34
2022-10-08T03:00:58.516Z,97193.94
2022-10-08T03:03:34.078Z,97187.66
2022-10-08T03:06:08.444Z,97197.59
2022-10-08T03:08:43.259Z,97202.91
2022-10-08T03:11:13.682Z,97196.63
2022-10-08T03:13:46.858Z,97201.00
2022-10-08T03:16:22.461Z,97196.50
2022-10-08T03:18:53.010Z,97192.66
2022-10-08T03:21:22.102Z,97194.44
2022-10-08T03:23:50.363Z,97186.56
2022-10-08T03:26:19.001Z,97192.19
2022-10-08T03:28:47.346Z,97202.66
2022-10-08T03:31:17.311Z,97206.84
2022-10-08T03:33:50.127Z,97212.13
2022-10-08T03:36:18.787Z,97204.53
2022-10-08T03:38:47.127Z,97205.22
2022-10-08T03:41:16.157Z,97211.78
2022-10-08T03:43:45.147Z,97206.78
2022-10-08T03:46:16.358Z,97204.38
2022-10-08T03:48:49.124Z,97210.47
2022-10-08T03:51:19.283Z,97211.91
2022-10-08T03:53:48.274Z,97212.09
2022-10-08T03:56:18.891Z,97208.69
2022-10-08T03:58:47.947Z,97214.63
2022-10-08T04:01:19.247Z,97216.59
2022-10-08T04:03:47.566Z,97216.31
2022-10-08T04:06:16.344Z,97216.16
2022-10-08T04:08:45.360Z,97214.06
2022-10-08T04:11:16.067Z,97220.34
2022-10-08T04:13:45.570Z,97222.13
2022-10-08T04:16:18.793Z,97215.03
2022-10-08T04:18:49.536Z,97215.84
2022-10-08T04:21:19.916Z,97221.00
2022-10-08T04:23:50.327Z,97224.66
2022-10-08T04:26:18.986Z,97221.25
2022-10-08T04:28:48.716Z,97213.06
2022-10-08T04:31:21.853Z,97209.53
2022-10-08T04:33:52.070Z,97213.19
2022-10-08T04:36:24.557Z,97212.22
2022-10-08T04:38:53.110Z,97212.88
2022-10-08T04:41:23.966Z,97221.22
2022-10-08T04:43:53.910Z,97222.66
2022-10-08T04:46:24.119Z,97230.00
2022-10-08T04:48:55.325Z,97226.78
2022-10-08T04:51:25.516Z,97221.00
2022-10-08T04:53:56.562Z,97230.13
2022-10-08T04:56:27.191Z,97224.63
2022-10-08T04:58:56.323Z,97233.59
2022-10-08T05:01:27.754Z,97224.41
2022-10-08T05:03:58.358Z,97222.53
2022-10-08T05:06:29.114Z,97219.78
2022-10-08T05:08:59.111Z,97221.06
2022-10-08T05:11:28.748Z,97222.06
2022-10-08T05:13:59.313Z,97230.28
2022-10-08T05:16:29.392Z,97233.03
2022-10-08T05:18:58.434Z,97227.41
2022-10-08T05:21:28.939Z,97236.81
2022-10-08T05:24:01.315Z,97236.53
2022-10-08T05:29:20.578Z,97241.38
2022-10-08T05:31:50.276Z,97246.38
2022-10-08T05:34:18.931Z,97248.16
2022-10-08T05:36:47.707Z,97250.22
2022-10-08T05:39:16.528Z,97242.88
2022-10-08T05:41:44.938Z,97250.59
2022-10-08T05:44:14.934Z,97249.34
2022-10-08T05:46:43.653Z,97249.00
2022-10-08T05:49:20.080Z,97248.06
2022-10-08T05:51:49.029Z,97252.56
2022-10-08T05:54:18.214Z,97248.69
2022-10-08T05:56:46.577Z,97253.53
2022-10-08T05:59:18.978Z,97263.53
2022-10-08T06:01:47.772Z,97265.78
2022-10-08T06:04:18.465Z,97260.97
2022-10-08T06:06:47.095Z,97263.38
2022-10-08T06:09:18.579Z,97263.22
2022-10-08T06:11:48.049Z,97259.84
2022-10-08T06:14:19.199Z,97267.38
2022-10-08T06:16:47.782Z,97277.88
2022-10-08T06:19:17.990Z,97277.25
2022-10-08T06:21:46.597Z,97285.47
2022-10-08T06:24:15.608Z,97291.44
2022-10-08T06:26:45.784Z,97291.88
2022-10-08T06:29:17.417Z,97296.91
2022-10-08T06:31:47.144Z,97304.44
2022-10-08T06:34:16.955Z,97302.53
2022-10-08T06:36:45.570Z,97306.72
2022-10-08T06:39:17.763Z,97300.88
2022-10-08T06:41:46.442Z,97298.75
2022-10-08T06:44:19.033Z,97287.94
2022-10-08T06:46:47.582Z,97289.53
2022-10-08T06:49:18.294Z,97289.22
2022-10-08T06:51:46.995Z,97292.94
2022-10-08T06:54:15.300Z,97287.44
2022-10-08T06:56:43.588Z,97287.38
2022-10-08T06:59:12.077Z,97293.97
2022-10-08T07:01:40.461Z,97293.66
2022-10-08T07:04:12.752Z,97305.94
2022-10-08T07:06:42.407Z,97307.09
2022-10-08T07:09:11.037Z,97304.63
2022-10-08T07:11:40.060Z,97311.78
2022-10-08T07:14:08.359Z,97308.72
2022-10-08T07:16:36.839Z,97311.88
2022-10-08T07:19:05.297Z,97306.66
2022-10-08T07:21:33.629Z,97312.47
2022-10-08T07:24:03.674Z,97318.38
2022-10-08T07:26:34.865Z,97322.59
2022-10-08T07:29:06.489Z,97326.69
2022-10-08T07:31:38.088Z,97324.56
2022-10-08T07:34:09.453Z,97327.63
2022-10-08T07:36:38.954Z,97325.53
2022-10-08T07:39:12.590Z,97327.53
2022-10-08T07:41:41.711Z,97333.44
2022-10-08T07:44:13.305Z,97331.75
2022-10-08T07:46:46.905Z,97335.78
2022-10-08T07:49:15.891Z,97331.25
2022-10-08T07:51:44.967Z,97336.78
2022-10-08T07:54:17.433Z,97339.63
2022-10-08T07:56:46.113Z,97332.50
2022-10-08T07:59:16.035Z,97343.19
2022-10-08T08:01:45.470Z,97341.09
2022-10-08T08:04:14.710Z,97356.22
2022-10-08T08:06:45.510Z,97357.59
2022-10-08T08:09:16.174Z,97364.41
2022-10-08T08:11:46.089Z,97361.59
2022-10-08T08:14:14.430Z,97364.44
2022-10-08T08:16:43.149Z,97361.94
2022-10-08T08:19:11.608Z,97356.97
2022-10-08T08:21:40.424Z,97366.84
2022-10-08T08:24:12.780Z,97371.22
2022-10-08T08:26:44.722Z,97373.72
2022-10-08T08:29:16.406Z,97372.03
2022-10-08T08:31:47.743Z,97367.84
2022-10-08T08:34:19.204Z,97375.34
2022-10-08T08:36:51.243Z,97375.53
2022-10-08T08:39:22.776Z,97374.91
2022-10-08T08:42:07.803Z,97377.97
2022-10-08T08:44:40.401Z,97372.06
2022-10-08T08:47:18.391Z,97377.50
2022-10-08T08:49:53.763Z,97378.75
2022-10-08T08:52:25.851Z,97374.56
2022-10-08T08:54:55.450Z,97373.16
2022-10-08T08:57:37.038Z,97364.25
2022-10-08T09:00:19.829Z,97363.78
2022-10-08T09:02:58.648Z,97366.91
2022-10-08T09:05:32.561Z,97369.31
2022-10-08T09:08:11.430Z,97365.44
2022-10-08T09:10:47.866Z,97367.06
2022-10-08T09:13:23.443Z,97367.72
2022-10-08T09:15:53.040Z,97373.47
2022-10-08T09:18:21.350Z,97379.88
2022-10-08T09:20:50.003Z,97380.50
2022-10-08T09:23:21.436Z,97380.22
2022-10-08T09:25:57.730Z,97376.69
2022-10-08T09:28:49.038Z,97392.22
2022-10-08T09:31:29.647Z,97386.63
2022-10-08T09:34:07.904Z,97387.47
2022-10-08T09:36:39.365Z,97385.94
2022-10-08T09:39:23.345Z,97388.09
2022-10-08T09:42:17.143Z,97388.53
2022-10-08T09:44:49.349Z,97396.00
2022-10-08T09:47:20.581Z,97396.34
2022-10-08T09:50:06.111Z,97395.94
2022-10-08T09:52:37.642Z,97394.72
2022-10-08T09:55:18.222Z,97395.13
2022-10-08T09:57:49.599Z,97382.19
2022-10-08T10:00:31.214Z,97384.41
2022-10-08T10:03:01.636Z,97384.59
2022-10-08T10:05:33.287Z,97382.47
2022-10-08T10:08:02.393Z,97393.31
2022-10-08T10:10:37.660Z,97388.72
2022-10-08T10:13:14.741Z,97386.59
2022-10-08T10:15:53.076Z,97379.47
2022-10-08T10:18:27.659Z,97381.19
2022-10-08T10:21:02.326Z,97377.38
2022-10-08T10:23:39.620Z,97386.28
2022-10-08T10:26:16.441Z,97380.91
2022-10-08T10:28:49.459Z,97376.94
2022-10-08T10:31:24.519Z,97383.88
2022-10-08T10:34:01.371Z,97378.41
2022-10-08T10:36:36.116Z,97384.03
2022-10-08T10:39:19.814Z,97382.72
2022-10-08T10:41:55.636Z,97377.47
2022-10-08T10:44:29.070Z,97375.69
2022-10-08T10:47:02.741Z,97371.53
2022-10-08T10:49:38.943Z,97373.03
2022-10-08T10:52:34.529Z,97376.66
2022-10-08T10:55:19.717Z,97382.44
2022-10-08T10:58:23.894Z,97378.84
2022-10-08T11:01:08.416Z,97380.41
2022-10-08T11:03:52.066Z,97375.75
2022-10-08T11:06:54.300Z,97370.00
2022-10-08T11:09:37.217Z,97369.25
2022-10-08T11:12:25.712Z,97362.81
2022-10-08T11:15:07.588Z,97372.88
2022-10-08T11:18:07.962Z,97371.78
2022-10-08T11:20:56.608Z,97366.81
2022-10-08T11:24:17.276Z,97370.00
2022-10-08T11:26:56.683Z,97369.44
2022-10-08T11:29:36.478Z,97365.00
2022-10-08T11:32:11.505Z,97357.13
2022-10-08T11:34:48.093Z,97355.00
2022-10-08T11:37:30.401Z,97346.59
2022-10-08T11:40:07.387Z,97354.72
2022-10-08T11:42:49.068Z,97350.84
2022-10-08T11:45:35.317Z,97345.03
2022-10-08T11:48:35.100Z,97345.47
2022-10-08T11:51:39.926Z,97347.69
2022-10-08T11:54:17.181Z,97335.88
2022-10-08T11:56:48.914Z,97339.31
2022-10-08T11:59:37.904Z,97338.34
2022-10-08T12:02:23.973Z,97341.50
2022-10-08T12:04:54.899Z,97345.41
2022-10-08T12:07:31.121Z,97358.09
2022-10-08T12:10:34.072Z,97348.22
2022-10-08T12:13:31.621Z,97348.94
2022-10-08T12:16:06.975Z,97348.34
2022-10-08T12:18:53.851Z,97345.66
2022-10-08T12:21:55.232Z,97331.13
2022-10-08T12:24:56.940Z,97347.84
2022-10-08T12:27:37.446Z,97343.91
2022-10-08T12:30:11.060Z,97343.44
2022-10-08T12:32:58.811Z,97335.69
2022-10-08T12:35:31.889Z,97334.53
2022-10-08T12:38:39.643Z,97328.66
2022-10-08T12:41:22.116Z,97336.53
2022-10-08T12:44:00.198Z,97338.22
2022-10-08T12:46:50.285Z,97334.00
2022-10-08T12:49:34.763Z,97334.13
2022-10-08T12:52:10.361Z,97336.69
2022-10-08T12:54:47.361Z,97331.03
2022-10-08T12:57:23.946Z,97328.94
2022-10-08T12:59:55.350Z,97330.38
2022-10-08T13:02:38.446Z,97326.22
2022-10-08T13:05:24.325Z,97325.09
2022-10-08T13:07:52.651Z,97325.06
2022-10-08T13:10:25.200Z,97333.41
2022-10-08T13:13:06.076Z,97321.38
2022-10-08T13:15:36.719Z,97332.91
2022-10-08T13:18:15.836Z,97337.28
2022-10-08T13:20:58.515Z,97330.13
2022-10-08T13:23:34.649Z,97341.19
2022-10-08T13:26:03.063Z,97335.63
2022-10-08T13:28:59.278Z,97336.28
2022-10-08T13:31:25.371Z,97333.47
2022-10-08T13:33:53.899Z,97329.31
2022-10-08T13:36:24.371Z,97347.34
2022-10-08T13:38:52.966Z,97330.56
2022-10-08T13:41:25.195Z,97334.56
2022-10-08T13:43:53.572Z,97336.78
2022-10-08T13:46:23.311Z,97342.59
2022-10-08T13:48:51.698Z,97337.50
2022-10-08T13:51:20.187Z,97340.03
2022-10-08T13:53:48.587Z,97344.22
2022-10-08T13:56:18.179Z,97350.34
2022-10-08T13:58:46.779Z,97344.44
2022-10-08T14:01:15.264Z,97355.38
2022-10-08T14:03:45.025Z,97345.56
2022-10-08T14:06:13.448Z,97346.53
2022-10-08T14:08:41.754Z,97350.50
2022-10-08T14:11:11.146Z,97338.28
2022-10-08T14:13:39.459Z,97350.22
2022-10-08T14:16:08.140Z,97348.94
2022-10-08T14:18:36.455Z,97348.66
2022-10-08T14:21:07.059Z,97349.66
2022-10-08T14:23:35.351Z,97352.00
2022-10-08T14:26:03.646Z,97352.66
2022-10-08T14:28:32.055Z,97356.75
2022-10-08T14:31:00.447Z,97358.69
2022-10-08T14:33:28.756Z,97366.03
2022-10-08T14:35:57.088Z,97366.25
2022-10-08T14:38:26.777Z,97370.38
2022-10-08T14:40:55.123Z,97372.78
2022-10-08T14:43:27.451Z,97365.16
2022-10-08T14:45:56.533Z,97370.50
2022-10-08T14:48:24.834Z,97375.63
2022-10-08T14:50:53.182Z,97371.88
2022-10-08T14:53:21.813Z,97374.63
2022-10-08T14:56:10.909Z,97370.09
2022-10-08T14:58:40.213Z,97371.59
2022-10-08T15:01:08.782Z,97379.00
2022-10-08T15:03:37.147Z,97369.94
2022-10-08T15:06:05.646Z,97375.06
2022-10-08T15:08:34.868Z,97378.59
2022-10-08T15:11:05.470Z,97386.84
2022-10-08T15:13:33.798Z,97382.19
2022-10-08T15:16:02.526Z,97389.84
2022-10-08T15:18:32.467Z,97387.09
2022-10-08T15:21:01.821Z,97389.66
2022-10-08T15:23:30.432Z,97389.41
2022-10-08T15:26:00.665Z,97390.94
2022-10-08T15:28:31.385Z,97398.00
2022-10-08T15:31:05.880Z,97396.19
2022-10-08T15:33:39.205Z,97404.34
2022-10-08T15:36:19.711Z,97412.47
2022-10-08T15:38:49.087Z,97412.31
2022-10-08T15:41:18.380Z,97417.84
2022-10-08T15:43:48.329Z,97411.59
2022-10-08T15:46:18.907Z,97411.41
2022-10-08T15:48:53.807Z,97418.28
2022-10-08T15:51:22.744Z,97416.38
2022-10-08T15:53:53.546Z,97415.97
2022-10-08T15:56:22.293Z,97426.22
2022-10-08T15:58:53.741Z,97427.03
2022-10-08T16:01:24.625Z,97425.84
2022-10-08T16:03:54.875Z,97429.44
2022-10-08T16:06:25.823Z,97428.91
2022-10-08T16:08:56.815Z,97436.56
2022-10-08T16:11:27.746Z,97439.13
2022-10-08T16:14:01.331Z,97442.00
2022-10-08T16:16:30.532Z,97441.34
2022-10-08T16:19:01.161Z,97439.06
2022-10-08T16:21:31.790Z,97436.44
2022-10-08T16:24:01.330Z,97440.81
2022-10-08T16:26:31.885Z,97441.22
2022-10-08T16:29:06.016Z,97443.03
2022-10-08T16:31:36.701Z,97439.69
2022-10-08T16:34:07.416Z,97444.59
2022-10-08T16:36:37.562Z,97445.84
2022-10-08T16:39:07.293Z,97445.00
2022-10-08T16:41:37.900Z,97455.75
2022-10-08T16:44:12.747Z,97461.91
2022-10-08T16:46:44.249Z,97461.97
2022-10-08T16:49:23.795Z,97471.41
2022-10-08T16:51:54.438Z,97470.47
2022-10-08T16:54:23.094Z,97471.25
2022-10-08T16:56:52.233Z,97478.16
2022-10-08T16:59:23.876Z,97477.00
2022-10-08T17:01:57.245Z,97473.44
2022-10-08T17:04:28.766Z,97486.94
2022-10-08T17:06:57.452Z,97485.06
2022-10-08T17:09:26.102Z,97490.63
2022-10-08T17:11:54.794Z,97496.06
2022-10-08T17:14:24.772Z,97504.25
2022-10-08T17:16:53.502Z,97508.75
2022-10-08T17:19:22.144Z,97507.47
2022-10-08T17:21:50.773Z,97501.19
2022-10-08T17:24:19.042Z,97510.19
2022-10-08T17:26:48.993Z,97514.22
2022-10-08T17:29:17.747Z,97511.94
2022-10-08T17:31:47.442Z,97513.88
2022-10-08T17:34:16.389Z,97520.38
2022-10-08T17:36:44.786Z,97527.44
2022-10-08T17:39:15.186Z,97532.06
2022-10-08T17:41:44.933Z,97536.13
2022-10-08T17:44:13.810Z,97544.19
2022-10-08T17:46:45.915Z,97545.38
2022-10-08T17:49:18.131Z,97557.06
2022-10-08T17:51:47.792Z,97557.91
2022-10-08T17:54:19.730Z,97555.03
2022-10-08T17:56:48.967Z,97555.50
2022-10-08T17:59:19.102Z,97565.28
2022-10-08T18:01:47.903Z,97574.34
2022-10-08T18:04:19.049Z,97570.06
2022-10-08T18:06:48.951Z,97570.59
2022-10-08T18:09:19.411Z,97586.41
2022-10-08T18:11:50.930Z,97587.78
2022-10-08T18:14:20.229Z,97592.00
2022-10-08T18:16:49.137Z,97592.91
2022-10-08T18:19:19.917Z,97603.22
2022-10-08T18:21:48.565Z,97598.34
2022-10-08T18:24:18.107Z,97607.31
2022-10-08T18:26:47.008Z,97609.34
2022-10-08T18:29:16.532Z,97612.16
2022-10-08T18:31:47.395Z,97620.81
2022-10-08T18:34:19.449Z,97617.56
2022-10-08T18:36:49.401Z,97619.28
2022-10-08T18:39:22.565Z,97623.44
2022-10-08T18:41:56.208Z,97622.94
2022-10-08T18:44:27.299Z,97625.81
2022-10-08T18:46:56.240Z,97622.59
2022-10-08T18:49:30.907Z,97627.94
2022-10-08T18:52:01.538Z,97628.91
2022-10-08T18:54:30.767Z,97636.81
2022-10-08T18:57:00.455Z,97643.53
2022-10-08T18:59:31.121Z,97645.44
2022-10-08T19:02:00.721Z,97649.31
2022-10-08T19:04:31.012Z,97651.16
2022-10-08T19:06:59.478Z,97652.50
2022-10-08T19:09:28.229Z,97651.69
2022-10-08T19:11:57.659Z,97660.91
2022-10-08T19:14:26.397Z,97657.03
2022-10-08T19:16:55.276Z,97662.13
2022-10-08T19:19:27.474Z,97674.38
2022-10-08T19:22:00.283Z,97670.34
2022-10-08T19:24:30.011Z,97670.34
2022-10-08T19:26:59.149Z,97667.31
2022-10-08T19:29:31.993Z,97677.22
2022-10-08T19:32:00.903Z,97684.91
2022-10-08T19:34:30.197Z,97682.56
2022-10-08T19:37:00.535Z,97672.44
2022-10-08T19:39:30.899Z,97692.78
2022-10-08T19:41:59.930Z,97691.09
2022-10-08T19:44:28.644Z,97699.28
2022-10-08T19:46:57.487Z,97705.16
2022-10-08T19:49:26.168Z,97708.84
2022-10-08T19:51:54.984Z,97711.38
2022-10-08T19:54:25.704Z,97711.34
2022-10-08T19:56:55.962Z,97716.66
2022-10-08T19:59:24.828Z,97716.06
2022-10-08T20:01:53.603Z,97722.72
2022-10-08T20:04:23.493Z,97721.16
2022-10-08T20:06:52.392Z,97731.38
2022-10-08T20:09:21.160Z,97735.47
2022-10-08T20:11:51.317Z,97733.13
2022-10-08T20:14:20.096Z,97728.56
2022-10-08T20:16:48.746Z,97727.84
2022-10-08T20:19:20.751Z,97733.72
2022-10-08T20:21:51.696Z,97744.78
2022-10-08T20:24:20.731Z,97743.75
2022-10-08T20:26:51.062Z,97744.78
2022-10-08T20:29:21.726Z,97743.00
2022-10-08T20:31:54.080Z,97754.72
2022-10-08T20:34:26.819Z,97750.78
2022-10-08T20:36:55.732Z,97760.09
2022-10-08T20:39:24.764Z,97755.22
2022-10-08T20:41:54.996Z,97751.13
2022-10-08T20:44:24.523Z,97760.09
2022-10-08T20:46:53.217Z,97757.44
2022-10-08T20:49:22.002Z,97762.91
2022-10-08T20:51:51.047Z,97762.66
2022-10-08T20:54:19.794Z,97762.44
2022-10-08T20:56:48.453Z,97766.72
2022-10-08T20:59:20.546Z,97772.09
2022-10-08T21:01:51.086Z,97774.03
2022-10-08T21:04:20.429Z,97778.16
2022-10-08T21:06:50.904Z,97764.19
2022-10-08T21:09:21.922Z,97774.22
2022-10-08T21:11:50.595Z,97779.19
2022-10-08T21:14:22.843Z,97778.44
2022-10-08T21:16:53.479Z,97774.78
2022-10-08T21:19:23.280Z,97777.84
2022-10-08T21:21:52.307Z,97782.72
2022-10-08T21:24:21.107Z,97781.66
2022-10-08T21:26:50.041Z,97783.31
2022-10-08T21:29:19.875Z,97792.03
2022-10-08T21:31:48.566Z,97782.13
2022-10-08T21:34:16.996Z,97783.53
2022-10-08T21:36:46.080Z,97788.50
2022-10-08T21:39:17.680Z,97795.28
2022-10-08T21:41:46.948Z,97799.81
2022-10-08T21:44:16.212Z,97800.44
2022-10-08T21:46:46.798Z,97796.06
2022-10-08T21:49:17.956Z,97792.44
2022-10-08T21:51:47.393Z,97796.03
2022-10-08T21:54:17.714Z,97794.50
2022-10-08T21:56:46.559Z,97804.13
2022-10-08T21:59:17.379Z,97797.38
2022-10-08T22:01:49.737Z,97797.38
2022-10-08T22:04:20.240Z,97805.78
2022-10-08T22:06:52.224Z,97798.78
2022-10-08T22:09:23.603Z,97806.72
2022-10-08T22:11:53.998Z,97808.72
2022-10-08T22:14:22.970Z,97802.31
2022-10-08T22:16:53.204Z,97794.53
2022-10-08T22:19:21.975Z,97798.97
2022-10-08T22:21:50.746Z,97803.34
2022-10-08T22:24:19.358Z,97807.22
2022-10-08T22:26:49.156Z,97809.72
2022-10-08T22:29:18.146Z,97811.38
2022-10-08T22:31:46.963Z,97817.09
2022-10-08T22:34:16.750Z,97815.47
2022-10-08T22:36:46.190Z,97813.50
2022-10-08T22:39:14.612Z,97815.94
2022-10-08T22:41:43.393Z,97821.06
2022-10-08T22:44:12.060Z,97830.56
2022-10-08T22:46:41.559Z,97820.25
2022-10-08T22:49:12.338Z,97817.50
2022-10-08T22:51:43.853Z,97822.38
2022-10-08T22:54:12.607Z,97818.63
2022-10-08T22:56:41.401Z,97825.66
2022-10-08T22:59:10.663Z,97821.56
2022-10-08T23:01:39.318Z,97813.41
2022-10-08T23:04:08.083Z,97821.84
2022-10-08T23:06:37.043Z,97824.56
2022-10-08T23:09:09.082Z,97820.22
2022-10-08T23:11:37.529Z,97822.19
2022-10-08T23:14:06.885Z,97823.53
2022-10-08T23:16:36.458Z,97822.75
2022-10-08T23:19:08.350Z,97816.50
2022-10-08T23:21:37.933Z,97825.78
2022-10-08T23:24:07.920Z,97820.91
2022-10-08T23:26:37.201Z,97822.81
2022-10-08T23:29:06.373Z,97812.47
2022-10-08T23:31:37.210Z,97823.41
2022-10-08T23:34:06.954Z,97823.13
2022-10-08T23:36:38.094Z,97822.84
2022-10-08T23:39:11.494Z,97827.75
2022-10-08T23:41:40.227Z,97829.91
2022-10-08T23:44:09.265Z,97825.56
2022-10-08T23:46:37.994Z,97829.13
2022-10-08T23:49:06.640Z,97830.72
2022-10-08T23:51:36.006Z,97834.81
2022-10-08T23:54:04.798Z,97831.84
2022-10-08T23:56:34.821Z,97831.81
2022-10-08T23:59:03.539Z,97836.44
